sensor_id;sensor_type;location;lat;lon;timestamp;pressure;altitude;pressure_sealevel;temperature;humidity
64354;BME280;50681;53.334;-6.536;2022-07-11T00:01:52;101811.13;;;17.65;100.00
64354;BME280;50681;53.334;-6.536;2022-07-11T00:04:18;101811.22;;;17.59;100.00
64354;BME280;50681;53.334;-6.536;2022-07-11T00:06:43;101810.50;;;17.54;100.00
64354;BME280;50681;53.334;-6.536;2022-07-11T00:09:09;101807.88;;;17.48;100.00
64354;BME280;50681;53.334;-6.536;2022-07-11T00:11:34;101776.88;;;17.30;100.00
64354;BME280;50681;53.334;-6.536;2022-07-11T00:13:59;101798.63;;;17.36;100.00
64354;BME280;50681;53.334;-6.536;2022-07-11T00:16:25;101796.19;;;17.34;100.00
64354;BME280;50681;53.334;-6.536;2022-07-11T00:18:50;101769.50;;;17.17;100.00
64354;BME280;50681;53.334;-6.536;2022-07-11T00:21:16;101764.66;;;17.14;100.00
64354;BME280;50681;53.334;-6.536;2022-07-11T00:23:41;101781.63;;;17.25;100.00
64354;BME280;50681;53.334;-6.536;2022-07-11T00:26:07;101774.75;;;17.13;100.00
64354;BME280;50681;53.334;-6.536;2022-07-11T00:28:32;101777.81;;;17.12;100.00
64354;BME280;50681;53.334;-6.536;2022-07-11T00:30:58;101783.03;;;17.08;100.00
64354;BME280;50681;53.334;-6.536;2022-07-11T00:33:23;101774.16;;;17.02;100.00
64354;BME280;50681;53.334;-6.536;2022-07-11T00:35:49;101752.72;;;16.82;100.00
64354;BME280;50681;53.334;-6.536;2022-07-11T00:38:14;101750.69;;;16.87;100.00
64354;BME280;50681;53.334;-6.536;2022-07-11T00:40:39;101758.34;;;16.85;100.00
64354;BME280;50681;53.334;-6.536;2022-07-11T00:43:05;101736.31;;;16.68;100.00
64354;BME280;50681;53.334;-6.536;2022-07-11T00:45:32;101757.53;;;16.71;100.00
64354;BME280;50681;53.334;-6.536;2022-07-11T00:47:57;101753.78;;;16.67;100.00
64354;BME280;50681;53.334;-6.536;2022-07-11T00:50:26;101757.72;;;16.60;100.00
64354;BME280;50681;53.334;-6.536;2022-07-11T00:52:54;101738.03;;;16.50;100.00
64354;BME280;50681;53.334;-6.536;2022-07-11T00:55:21;101741.63;;;16.45;100.00
64354;BME280;50681;53.334;-6.536;2022-07-11T00:57:46;101757.41;;;16.48;100.00
64354;BME280;50681;53.334;-6.536;2022-07-11T01:00:12;101755.56;;;16.43;100.00
64354;BME280;50681;53.334;-6.536;2022-07-11T01:02:39;101755.44;;;16.35;100.00
64354;BME280;50681;53.334;-6.536;2022-07-11T01:05:04;101768.97;;;16.40;100.00
64354;BME280;50681;53.334;-6.536;2022-07-11T01:07:31;101769.38;;;16.33;100.00
64354;BME280;50681;53.334;-6.536;2022-07-11T01:09:57;101748.53;;;16.23;100.00
64354;BME280;50681;53.334;-6.536;2022-07-11T01:12:22;101752.97;;;16.19;100.00
64354;BME280;50681;53.334;-6.536;2022-07-11T01:14:55;101729.22;;;16.06;100.00
64354;BME280;50681;53.334;-6.536;2022-07-11T01:17:21;101712.75;;;15.97;100.00
64354;BME280;50681;53.334;-6.536;2022-07-11T01:19:47;101760.03;;;16.20;100.00
64354;BME280;50681;53.334;-6.536;2022-07-11T01:22:14;101721.22;;;15.95;100.00
64354;BME280;50681;53.334;-6.536;2022-07-11T01:24:48;101740.94;;;16.06;100.00
64354;BME280;50681;53.334;-6.536;2022-07-11T01:27:13;101698.84;;;15.79;100.00
64354;BME280;50681;53.334;-6.536;2022-07-11T01:29:40;101738.81;;;16.03;100.00
64354;BME280;50681;53.334;-6.536;2022-07-11T01:32:06;101714.75;;;15.91;100.00
64354;BME280;50681;53.334;-6.536;2022-07-11T01:34:33;101724.03;;;15.90;100.00
64354;BME280;50681;53.334;-6.536;2022-07-11T01:36:59;101738.28;;;16.01;100.00
64354;BME280;50681;53.334;-6.536;2022-07-11T01:39:24;101720.81;;;15.88;100.00
64354;BME280;50681;53.334;-6.536;2022-07-11T01:41:50;101736.69;;;16.00;100.00
64354;BME280;50681;53.334;-6.536;2022-07-11T01:44:15;101728.88;;;15.93;100.00
64354;BME280;50681;53.334;-6.536;2022-07-11T01:46:41;101735.84;;;15.99;100.00
64354;BME280;50681;53.334;-6.536;2022-07-11T01:49:06;101714.91;;;15.81;100.00
64354;BME280;50681;53.334;-6.536;2022-07-11T01:51:33;101705.97;;;15.75;100.00
64354;BME280;50681;53.334;-6.536;2022-07-11T01:53:59;101714.53;;;15.68;100.00
64354;BME280;50681;53.334;-6.536;2022-07-11T01:56:24;101736.09;;;15.84;100.00
64354;BME280;50681;53.334;-6.536;2022-07-11T01:58:52;101716.22;;;15.64;100.00
64354;BME280;50681;53.334;-6.536;2022-07-11T02:01:18;101717.25;;;15.68;100.00
64354;BME280;50681;53.334;-6.536;2022-07-11T02:03:44;101730.78;;;15.73;100.00
64354;BME280;50681;53.334;-6.536;2022-07-11T02:06:09;101720.56;;;15.65;100.00
64354;BME280;50681;53.334;-6.536;2022-07-11T02:08:35;101716.81;;;15.61;100.00
64354;BME280;50681;53.334;-6.536;2022-07-11T02:11:02;101727.31;;;15.68;100.00
64354;BME280;50681;53.334;-6.536;2022-07-11T02:13:27;101698.00;;;15.46;100.00
64354;BME280;50681;53.334;-6.536;2022-07-11T02:15:52;101698.56;;;15.42;100.00
64354;BME280;50681;53.334;-6.536;2022-07-11T02:18:19;101718.59;;;15.52;100.00
64354;BME280;50681;53.334;-6.536;2022-07-11T02:20:45;101724.16;;;15.41;100.00
64354;BME280;50681;53.334;-6.536;2022-07-11T02:23:11;101730.66;;;15.46;100.00
64354;BME280;50681;53.334;-6.536;2022-07-11T02:25:37;101721.00;;;15.34;100.00
64354;BME280;50681;53.334;-6.536;2022-07-11T02:28:07;101695.63;;;15.20;100.00
64354;BME280;50681;53.334;-6.536;2022-07-11T02:30:40;101707.81;;;15.22;100.00
64354;BME280;50681;53.334;-6.536;2022-07-11T02:33:06;101729.16;;;15.34;100.00
64354;BME280;50681;53.334;-6.536;2022-07-11T02:35:42;101725.69;;;15.28;100.00
64354;BME280;50681;53.334;-6.536;2022-07-11T02:38:08;101697.94;;;15.07;100.00
64354;BME280;50681;53.334;-6.536;2022-07-11T02:40:33;101709.03;;;15.11;100.00
64354;BME280;50681;53.334;-6.536;2022-07-11T02:43:01;101736.94;;;15.22;100.00
64354;BME280;50681;53.334;-6.536;2022-07-11T02:45:26;101721.25;;;15.13;100.00
64354;BME280;50681;53.334;-6.536;2022-07-11T02:47:52;101715.44;;;15.01;100.00
64354;BME280;50681;53.334;-6.536;2022-07-11T02:50:17;101714.03;;;15.04;100.00
64354;BME280;50681;53.334;-6.536;2022-07-11T02:52:43;101691.94;;;14.86;100.00
64354;BME280;50681;53.334;-6.536;2022-07-11T02:55:10;101719.19;;;15.05;100.00
64354;BME280;50681;53.334;-6.536;2022-07-11T02:57:36;101706.00;;;14.93;100.00
64354;BME280;50681;53.334;-6.536;2022-07-11T03:00:03;101716.59;;;14.95;100.00
64354;BME280;50681;53.334;-6.536;2022-07-11T03:02:29;101702.66;;;14.77;100.00
64354;BME280;50681;53.334;-6.536;2022-07-11T03:04:54;101686.19;;;14.63;100.00
64354;BME280;50681;53.334;-6.536;2022-07-11T03:07:20;101695.34;;;14.73;100.00
64354;BME280;50681;53.334;-6.536;2022-07-11T03:09:45;101669.47;;;14.51;100.00
64354;BME280;50681;53.334;-6.536;2022-07-11T03:12:11;101682.19;;;14.55;100.00
64354;BME280;50681;53.334;-6.536;2022-07-11T03:14:36;101690.00;;;14.62;100.00
64354;BME280;50681;53.334;-6.536;2022-07-11T03:17:02;101677.91;;;14.49;100.00
64354;BME280;50681;53.334;-6.536;2022-07-11T03:19:27;101683.34;;;14.49;100.00
64354;BME280;50681;53.334;-6.536;2022-07-11T03:21:53;101689.63;;;14.45;100.00
64354;BME280;50681;53.334;-6.536;2022-07-11T03:24:18;101663.97;;;14.32;100.00
64354;BME280;50681;53.334;-6.536;2022-07-11T03:26:43;101695.31;;;14.48;100.00
64354;BME280;50681;53.334;-6.536;2022-07-11T03:29:09;101695.38;;;14.43;100.00
64354;BME280;50681;53.334;-6.536;2022-07-11T03:31:34;101665.22;;;14.15;100.00
64354;BME280;50681;53.334;-6.536;2022-07-11T03:34:00;101680.06;;;14.23;100.00
64354;BME280;50681;53.334;-6.536;2022-07-11T03:36:27;101691.75;;;14.23;100.00
64354;BME280;50681;53.334;-6.536;2022-07-11T03:38:52;101693.66;;;14.23;100.00
64354;BME280;50681;53.334;-6.536;2022-07-11T03:41:17;101675.78;;;14.17;100.00
64354;BME280;50681;53.334;-6.536;2022-07-11T03:43:43;101698.84;;;14.19;100.00
64354;BME280;50681;53.334;-6.536;2022-07-11T03:46:08;101677.25;;;14.04;100.00
64354;BME280;50681;53.334;-6.536;2022-07-11T03:48:34;101680.53;;;14.01;100.00
64354;BME280;50681;53.334;-6.536;2022-07-11T03:50:59;101686.16;;;14.09;100.00
64354;BME280;50681;53.334;-6.536;2022-07-11T03:53:25;101671.91;;;13.93;100.00
64354;BME280;50681;53.334;-6.536;2022-07-11T03:55:50;101680.59;;;13.95;100.00
64354;BME280;50681;53.334;-6.536;2022-07-11T03:58:16;101660.00;;;13.89;100.00
64354;BME280;50681;53.334;-6.536;2022-07-11T04:00:41;101683.81;;;13.98;100.00
64354;BME280;50681;53.334;-6.536;2022-07-11T04:03:07;101664.09;;;13.87;100.00
64354;BME280;50681;53.334;-6.536;2022-07-11T04:05:32;101676.81;;;13.91;100.00
64354;BME280;50681;53.334;-6.536;2022-07-11T04:07:58;101675.78;;;13.87;100.00
64354;BME280;50681;53.334;-6.536;2022-07-11T04:10:23;101662.53;;;13.75;100.00
64354;BME280;50681;53.334;-6.536;2022-07-11T04:12:49;101661.22;;;13.73;100.00
64354;BME280;50681;53.334;-6.536;2022-07-11T04:15:15;101674.75;;;13.78;100.00
64354;BME280;50681;53.334;-6.536;2022-07-11T04:17:40;101686.66;;;13.82;100.00
64354;BME280;50681;53.334;-6.536;2022-07-11T04:20:06;101680.41;;;13.81;100.00
64354;BME280;50681;53.334;-6.536;2022-07-11T04:22:31;101670.44;;;13.72;100.00
64354;BME280;50681;53.334;-6.536;2022-07-11T04:24:57;101677.53;;;13.67;100.00
64354;BME280;50681;53.334;-6.536;2022-07-11T04:27:22;101649.41;;;13.53;100.00
64354;BME280;50681;53.334;-6.536;2022-07-11T04:29:49;101678.63;;;13.66;100.00
64354;BME280;50681;53.334;-6.536;2022-07-11T04:32:14;101666.19;;;13.60;100.00
64354;BME280;50681;53.334;-6.536;2022-07-11T04:34:40;101668.91;;;13.60;100.00
64354;BME280;50681;53.334;-6.536;2022-07-11T04:37:05;101684.88;;;13.62;100.00
64354;BME280;50681;53.334;-6.536;2022-07-11T04:39:31;101666.53;;;13.48;100.00
64354;BME280;50681;53.334;-6.536;2022-07-11T04:42:00;101653.00;;;13.43;100.00
64354;BME280;50681;53.334;-6.536;2022-07-11T04:44:27;101687.34;;;13.63;100.00
64354;BME280;50681;53.334;-6.536;2022-07-11T04:46:52;101664.31;;;13.56;100.00
64354;BME280;50681;53.334;-6.536;2022-07-11T04:49:18;101663.16;;;13.67;100.00
64354;BME280;50681;53.334;-6.536;2022-07-11T04:51:44;101644.22;;;13.57;100.00
64354;BME280;50681;53.334;-6.536;2022-07-11T04:54:09;101678.22;;;13.84;100.00
64354;BME280;50681;53.334;-6.536;2022-07-11T04:56:35;101650.38;;;13.73;100.00
64354;BME280;50681;53.334;-6.536;2022-07-11T04:59:00;101653.00;;;13.83;100.00
64354;BME280;50681;53.334;-6.536;2022-07-11T05:01:26;101672.31;;;14.11;100.00
64354;BME280;50681;53.334;-6.536;2022-07-11T05:03:54;101671.06;;;14.28;100.00
64354;BME280;50681;53.334;-6.536;2022-07-11T05:06:20;101668.94;;;14.49;100.00
64354;BME280;50681;53.334;-6.536;2022-07-11T05:08:45;101667.47;;;14.62;100.00
64354;BME280;50681;53.334;-6.536;2022-07-11T05:11:11;101676.03;;;14.74;100.00
64354;BME280;50681;53.334;-6.536;2022-07-11T05:13:36;101657.22;;;14.78;100.00
64354;BME280;50681;53.334;-6.536;2022-07-11T05:16:03;101663.38;;;14.89;100.00
64354;BME280;50681;53.334;-6.536;2022-07-11T05:18:28;101651.97;;;14.87;100.00
64354;BME280;50681;53.334;-6.536;2022-07-11T05:20:54;101652.94;;;14.96;100.00
64354;BME280;50681;53.334;-6.536;2022-07-11T05:23:20;101667.00;;;15.22;100.00
64354;BME280;50681;53.334;-6.536;2022-07-11T05:25:45;101675.53;;;15.35;100.00
64354;BME280;50681;53.334;-6.536;2022-07-11T05:28:11;101673.56;;;15.40;100.00
64354;BME280;50681;53.334;-6.536;2022-07-11T05:30:36;101647.59;;;15.29;100.00
64354;BME280;50681;53.334;-6.536;2022-07-11T05:33:02;101658.25;;;15.45;100.00
64354;BME280;50681;53.334;-6.536;2022-07-11T05:35:27;101668.50;;;15.53;100.00
64354;BME280;50681;53.334;-6.536;2022-07-11T05:37:52;101664.00;;;15.62;100.00
64354;BME280;50681;53.334;-6.536;2022-07-11T05:40:18;101654.38;;;15.51;100.00
64354;BME280;50681;53.334;-6.536;2022-07-11T05:42:43;101676.03;;;15.75;100.00
64354;BME280;50681;53.334;-6.536;2022-07-11T05:45:09;101647.56;;;15.67;100.00
64354;BME280;50681;53.334;-6.536;2022-07-11T05:47:35;101633.38;;;15.70;100.00
64354;BME280;50681;53.334;-6.536;2022-07-11T05:50:01;101644.00;;;15.86;100.00
64354;BME280;50681;53.334;-6.536;2022-07-11T05:52:26;101668.09;;;16.12;100.00
64354;BME280;50681;53.334;-6.536;2022-07-11T05:54:51;101660.75;;;16.12;100.00
64354;BME280;50681;53.334;-6.536;2022-07-11T05:57:17;101660.94;;;16.16;100.00
64354;BME280;50681;53.334;-6.536;2022-07-11T05:59:42;101657.09;;;16.17;100.00
64354;BME280;50681;53.334;-6.536;2022-07-11T06:02:08;101667.22;;;16.30;100.00
64354;BME280;50681;53.334;-6.536;2022-07-11T06:04:34;101659.84;;;16.31;100.00
64354;BME280;50681;53.334;-6.536;2022-07-11T06:07:00;101648.44;;;16.29;100.00
64354;BME280;50681;53.334;-6.536;2022-07-11T06:09:26;101651.97;;;16.29;100.00
64354;BME280;50681;53.334;-6.536;2022-07-11T06:11:51;101664.41;;;16.50;100.00
64354;BME280;50681;53.334;-6.536;2022-07-11T06:14:17;101664.00;;;16.56;100.00
64354;BME280;50681;53.334;-6.536;2022-07-11T06:16:43;101661.50;;;16.60;100.00
64354;BME280;50681;53.334;-6.536;2022-07-11T06:19:08;101641.19;;;16.52;100.00
64354;BME280;50681;53.334;-6.536;2022-07-11T06:21:34;101662.47;;;16.78;100.00
64354;BME280;50681;53.334;-6.536;2022-07-11T06:23:59;101638.66;;;16.70;100.00
64354;BME280;50681;53.334;-6.536;2022-07-11T06:26:25;101645.00;;;16.79;100.00
64354;BME280;50681;53.334;-6.536;2022-07-11T06:28:50;101671.28;;;17.03;100.00
64354;BME280;50681;53.334;-6.536;2022-07-11T06:31:16;101638.94;;;16.96;100.00
64354;BME280;50681;53.334;-6.536;2022-07-11T06:33:42;101637.44;;;17.04;100.00
64354;BME280;50681;53.334;-6.536;2022-07-11T06:36:07;101656.78;;;17.30;100.00
64354;BME280;50681;53.334;-6.536;2022-07-11T06:38:34;101657.59;;;17.54;100.00
64354;BME280;50681;53.334;-6.536;2022-07-11T06:40:59;101667.38;;;17.69;100.00
64354;BME280;50681;53.334;-6.536;2022-07-11T06:43:25;101658.41;;;17.77;100.00
64354;BME280;50681;53.334;-6.536;2022-07-11T06:45:51;101635.75;;;17.76;100.00
64354;BME280;50681;53.334;-6.536;2022-07-11T06:48:17;101663.94;;;18.09;100.00
64354;BME280;50681;53.334;-6.536;2022-07-11T06:50:43;101648.03;;;18.11;100.00
64354;BME280;50681;53.334;-6.536;2022-07-11T06:53:08;101662.97;;;18.45;100.00
64354;BME280;50681;53.334;-6.536;2022-07-11T06:55:34;101651.91;;;18.59;100.00
64354;BME280;50681;53.334;-6.536;2022-07-11T06:58:00;101662.47;;;18.83;100.00
64354;BME280;50681;53.334;-6.536;2022-07-11T07:00:25;101648.00;;;18.91;100.00
64354;BME280;50681;53.334;-6.536;2022-07-11T07:02:57;101651.09;;;19.07;100.00
64354;BME280;50681;53.334;-6.536;2022-07-11T07:05:24;101625.50;;;19.12;100.00
64354;BME280;50681;53.334;-6.536;2022-07-11T07:07:53;101656.91;;;19.41;100.00
64354;BME280;50681;53.334;-6.536;2022-07-11T07:10:19;101659.16;;;19.57;100.00
64354;BME280;50681;53.334;-6.536;2022-07-11T07:12:45;101655.13;;;19.63;100.00
64354;BME280;50681;53.334;-6.536;2022-07-11T07:15:11;101632.25;;;19.59;100.00
64354;BME280;50681;53.334;-6.536;2022-07-11T07:17:38;101626.91;;;19.62;100.00
64354;BME280;50681;53.334;-6.536;2022-07-11T07:20:05;101638.34;;;19.73;100.00
64354;BME280;50681;53.334;-6.536;2022-07-11T07:22:34;101641.41;;;19.80;100.00
64354;BME280;50681;53.334;-6.536;2022-07-11T07:25:01;101636.22;;;19.79;100.00
64354;BME280;50681;53.334;-6.536;2022-07-11T07:27:26;101631.41;;;19.85;100.00
64354;BME280;50681;53.334;-6.536;2022-07-11T07:29:52;101657.00;;;20.06;100.00
64354;BME280;50681;53.334;-6.536;2022-07-11T07:32:18;101647.66;;;20.07;100.00
64354;BME280;50681;53.334;-6.536;2022-07-11T07:34:44;101647.66;;;20.07;100.00
64354;BME280;50681;53.334;-6.536;2022-07-11T07:37:09;101659.88;;;20.19;100.00
64354;BME280;50681;53.334;-6.536;2022-07-11T07:39:35;101664.34;;;20.23;100.00
64354;BME280;50681;53.334;-6.536;2022-07-11T07:42:00;101660.16;;;20.26;100.00
64354;BME280;50681;53.334;-6.536;2022-07-11T07:44:26;101656.09;;;20.32;100.00
64354;BME280;50681;53.334;-6.536;2022-07-11T07:46:52;101665.91;;;20.42;100.00
64354;BME280;50681;53.334;-6.536;2022-07-11T07:49:17;101674.59;;;20.44;100.00
64354;BME280;50681;53.334;-6.536;2022-07-11T07:51:43;101653.38;;;20.32;100.00
64354;BME280;50681;53.334;-6.536;2022-07-11T07:54:08;101669.94;;;20.45;100.00
64354;BME280;50681;53.334;-6.536;2022-07-11T07:56:34;101645.63;;;20.34;100.00
64354;BME280;50681;53.334;-6.536;2022-07-11T07:58:59;101665.22;;;20.54;100.00
64354;BME280;50681;53.334;-6.536;2022-07-11T08:01:24;101661.00;;;20.56;100.00
64354;BME280;50681;53.334;-6.536;2022-07-11T08:04:07;101647.56;;;20.64;100.00
64354;BME280;50681;53.334;-6.536;2022-07-11T08:06:33;101648.00;;;20.75;100.00
64354;BME280;50681;53.334;-6.536;2022-07-11T08:09:00;101666.28;;;21.00;100.00
64354;BME280;50681;53.334;-6.536;2022-07-11T08:11:26;101649.91;;;21.04;100.00
64354;BME280;50681;53.334;-6.536;2022-07-11T08:13:52;101644.56;;;21.08;100.00
64354;BME280;50681;53.334;-6.536;2022-07-11T08:16:18;101646.63;;;21.32;100.00
64354;BME280;50681;53.334;-6.536;2022-07-11T08:18:44;101667.78;;;21.74;100.00
64354;BME280;50681;53.334;-6.536;2022-07-11T08:21:09;101667.97;;;22.02;100.00
64354;BME280;50681;53.334;-6.536;2022-07-11T08:23:35;101642.16;;;21.95;100.00
64354;BME280;50681;53.334;-6.536;2022-07-11T08:26:01;101653.66;;;22.22;100.00
64354;BME280;50681;53.334;-6.536;2022-07-11T08:28:27;101661.59;;;22.36;100.00
64354;BME280;50681;53.334;-6.536;2022-07-11T08:30:52;101638.91;;;22.39;100.00
64354;BME280;50681;53.334;-6.536;2022-07-11T08:33:18;101668.63;;;22.58;100.00
64354;BME280;50681;53.334;-6.536;2022-07-11T08:35:43;101651.19;;;22.54;100.00
64354;BME280;50681;53.334;-6.536;2022-07-11T08:38:09;101657.72;;;22.61;100.00
64354;BME280;50681;53.334;-6.536;2022-07-11T08:40:34;101652.31;;;22.65;100.00
64354;BME280;50681;53.334;-6.536;2022-07-11T08:43:01;101649.13;;;22.63;100.00
64354;BME280;50681;53.334;-6.536;2022-07-11T08:45:31;101659.88;;;22.81;100.00
64354;BME280;50681;53.334;-6.536;2022-07-11T08:47:58;101666.66;;;22.83;100.00
64354;BME280;50681;53.334;-6.536;2022-07-11T08:50:25;101641.22;;;22.74;100.00
64354;BME280;50681;53.334;-6.536;2022-07-11T08:52:53;101647.47;;;22.87;100.00
64354;BME280;50681;53.334;-6.536;2022-07-11T08:55:19;101658.94;;;23.01;100.00
64354;BME280;50681;53.334;-6.536;2022-07-11T08:57:46;101635.88;;;22.94;100.00
64354;BME280;50681;53.334;-6.536;2022-07-11T09:00:13;101653.41;;;23.01;100.00
64354;BME280;50681;53.334;-6.536;2022-07-11T09:02:41;101640.66;;;23.09;100.00
64354;BME280;50681;53.334;-6.536;2022-07-11T09:05:07;101659.59;;;23.23;100.00
64354;BME280;50681;53.334;-6.536;2022-07-11T09:07:33;101652.94;;;23.24;100.00
64354;BME280;50681;53.334;-6.536;2022-07-11T09:09:59;101630.94;;;22.99;100.00
64354;BME280;50681;53.334;-6.536;2022-07-11T09:12:24;101652.03;;;23.08;100.00
64354;BME280;50681;53.334;-6.536;2022-07-11T09:14:50;101647.88;;;23.14;100.00
64354;BME280;50681;53.334;-6.536;2022-07-11T09:17:25;101635.50;;;23.08;100.00
64354;BME280;50681;53.334;-6.536;2022-07-11T09:19:54;101627.34;;;23.11;100.00
64354;BME280;50681;53.334;-6.536;2022-07-11T09:22:20;101632.25;;;23.18;100.00
64354;BME280;50681;53.334;-6.536;2022-07-11T09:25:06;101614.69;;;23.23;100.00
64354;BME280;50681;53.334;-6.536;2022-07-11T09:27:58;101601.47;;;23.28;100.00
64354;BME280;50681;53.334;-6.536;2022-07-11T09:30:32;101602.06;;;23.50;100.00
64354;BME280;50681;53.334;-6.536;2022-07-11T09:33:03;101591.22;;;23.57;100.00
64354;BME280;50681;53.334;-6.536;2022-07-11T09:35:40;101597.66;;;23.93;100.00
64354;BME280;50681;53.334;-6.536;2022-07-11T09:38:12;101571.19;;;24.05;100.00
64354;BME280;50681;53.334;-6.536;2022-07-11T09:40:38;101582.28;;;24.25;100.00
64354;BME280;50681;53.334;-6.536;2022-07-11T09:43:04;101588.97;;;24.59;100.00
64354;BME280;50681;53.334;-6.536;2022-07-11T09:45:32;101595.25;;;24.76;100.00
64354;BME280;50681;53.334;-6.536;2022-07-11T09:48:07;101556.78;;;24.67;88.94
64354;BME280;50681;53.334;-6.536;2022-07-11T09:50:33;101574.56;;;24.86;96.61
64354;BME280;50681;53.334;-6.536;2022-07-11T09:53:07;101550.00;;;24.80;81.63
64354;BME280;50681;53.334;-6.536;2022-07-11T09:55:43;101570.94;;;25.21;81.02
64354;BME280;50681;53.334;-6.536;2022-07-11T09:58:13;101571.78;;;25.25;77.65
64354;BME280;50681;53.334;-6.536;2022-07-11T10:00:40;101570.03;;;25.36;77.32
64354;BME280;50681;53.334;-6.536;2022-07-11T10:03:07;101575.69;;;25.44;72.98
64354;BME280;50681;53.334;-6.536;2022-07-11T10:05:34;101561.44;;;25.42;71.49
64354;BME280;50681;53.334;-6.536;2022-07-11T10:08:00;101546.38;;;25.39;74.25
64354;BME280;50681;53.334;-6.536;2022-07-11T10:10:27;101540.50;;;25.41;75.14
64354;BME280;50681;53.334;-6.536;2022-07-11T10:12:54;101566.53;;;25.59;76.02
64354;BME280;50681;53.334;-6.536;2022-07-11T10:15:28;101562.47;;;25.53;72.80
64354;BME280;50681;53.334;-6.536;2022-07-11T10:20:37;101554.34;;;25.64;75.93
64354;BME280;50681;53.334;-6.536;2022-07-11T10:23:27;101547.47;;;25.54;72.95
64354;BME280;50681;53.334;-6.536;2022-07-11T10:30:49;101536.41;;;25.54;75.21
64354;BME280;50681;53.334;-6.536;2022-07-11T10:33:16;101537.19;;;25.54;75.64
64354;BME280;50681;53.334;-6.536;2022-07-11T10:35:44;101550.09;;;25.70;73.69
64354;BME280;50681;53.334;-6.536;2022-07-11T10:38:09;101530.06;;;25.77;73.97
64354;BME280;50681;53.334;-6.536;2022-07-11T10:40:48;101548.50;;;25.92;68.22
64354;BME280;50681;53.334;-6.536;2022-07-11T10:43:35;101549.91;;;25.82;68.65
64354;BME280;50681;53.334;-6.536;2022-07-11T10:46:07;101560.84;;;25.98;70.05
64354;BME280;50681;53.334;-6.536;2022-07-11T10:48:35;101543.59;;;25.82;69.40
64354;BME280;50681;53.334;-6.536;2022-07-11T10:54:11;101559.06;;;26.13;69.37
64354;BME280;50681;53.334;-6.536;2022-07-11T10:56:50;101548.09;;;26.17;67.96
64354;BME280;50681;53.334;-6.536;2022-07-11T10:59:18;101514.22;;;26.01;69.43
64354;BME280;50681;53.334;-6.536;2022-07-11T11:02:03;101548.22;;;26.24;69.19
64354;BME280;50681;53.334;-6.536;2022-07-11T11:04:43;101554.28;;;26.34;68.41
64354;BME280;50681;53.334;-6.536;2022-07-11T11:23:27;101528.84;;;27.23;64.71
64354;BME280;50681;53.334;-6.536;2022-07-11T11:25:53;101510.69;;;27.29;64.17
64354;BME280;50681;53.334;-6.536;2022-07-11T11:28:19;101533.72;;;27.37;62.19
64354;BME280;50681;53.334;-6.536;2022-07-11T11:30:52;101516.19;;;27.26;63.35
64354;BME280;50681;53.334;-6.536;2022-07-11T11:33:18;101516.31;;;27.40;64.13
64354;BME280;50681;53.334;-6.536;2022-07-11T11:35:44;101516.66;;;27.35;64.65
64354;BME280;50681;53.334;-6.536;2022-07-11T11:38:10;101506.94;;;27.11;65.40
64354;BME280;50681;53.334;-6.536;2022-07-11T11:40:36;101524.94;;;26.90;61.76
64354;BME280;50681;53.334;-6.536;2022-07-11T11:43:01;101523.28;;;26.85;66.33
64354;BME280;50681;53.334;-6.536;2022-07-11T11:45:27;101526.59;;;26.68;64.13
64354;BME280;50681;53.334;-6.536;2022-07-11T11:47:52;101530.22;;;26.72;66.44
64354;BME280;50681;53.334;-6.536;2022-07-11T11:50:17;101516.13;;;26.84;66.42
64354;BME280;50681;53.334;-6.536;2022-07-11T11:52:44;101482.69;;;26.70;65.34
64354;BME280;50681;53.334;-6.536;2022-07-11T11:55:10;101506.44;;;27.02;66.07
64354;BME280;50681;53.334;-6.536;2022-07-11T11:57:37;101475.84;;;26.91;65.66
64354;BME280;50681;53.334;-6.536;2022-07-11T12:00:03;101477.69;;;27.17;64.75
64354;BME280;50681;53.334;-6.536;2022-07-11T12:02:29;101480.97;;;27.30;64.47
64354;BME280;50681;53.334;-6.536;2022-07-11T12:04:56;101456.00;;;27.30;62.85
64354;BME280;50681;53.334;-6.536;2022-07-11T12:07:24;101472.78;;;27.44;63.01
64354;BME280;50681;53.334;-6.536;2022-07-11T12:09:52;101456.47;;;27.36;60.92
64354;BME280;50681;53.334;-6.536;2022-07-11T12:12:26;101467.81;;;27.68;58.72
64354;BME280;50681;53.334;-6.536;2022-07-11T12:17:52;101445.34;;;27.88;57.32
64354;BME280;50681;53.334;-6.536;2022-07-11T12:20:36;101454.50;;;27.92;55.45
64354;BME280;50681;53.334;-6.536;2022-07-11T12:23:04;101443.34;;;27.85;56.00
64354;BME280;50681;53.334;-6.536;2022-07-11T12:25:30;101445.34;;;27.84;55.71
64354;BME280;50681;53.334;-6.536;2022-07-11T12:27:56;101448.16;;;27.95;54.65
64354;BME280;50681;53.334;-6.536;2022-07-11T12:30:25;101439.59;;;28.15;56.25
64354;BME280;50681;53.334;-6.536;2022-07-11T12:33:11;101437.66;;;28.26;56.78
64354;BME280;50681;53.334;-6.536;2022-07-11T12:35:52;101415.31;;;28.05;56.52
64354;BME280;50681;53.334;-6.536;2022-07-11T12:38:18;101429.28;;;28.15;58.01
64354;BME280;50681;53.334;-6.536;2022-07-11T12:40:57;101446.63;;;28.01;58.37
64354;BME280;50681;53.334;-6.536;2022-07-11T12:43:38;101416.88;;;27.98;60.80
64354;BME280;50681;53.334;-6.536;2022-07-11T12:46:22;101433.19;;;28.07;60.35
64354;BME280;50681;53.334;-6.536;2022-07-11T12:48:49;101436.06;;;28.22;58.05
64354;BME280;50681;53.334;-6.536;2022-07-11T12:51:47;101441.66;;;28.36;59.63
64354;BME280;50681;53.334;-6.536;2022-07-11T12:54:15;101434.84;;;28.15;57.53
64354;BME280;50681;53.334;-6.536;2022-07-11T12:56:56;101425.31;;;28.20;59.31
64354;BME280;50681;53.334;-6.536;2022-07-11T12:59:24;101425.38;;;28.35;59.18
64354;BME280;50681;53.334;-6.536;2022-07-11T13:01:55;101414.31;;;28.49;59.75
64354;BME280;50681;53.334;-6.536;2022-07-11T13:04:35;101403.94;;;28.31;58.21